createdAt,value
2022-09-07T00:01:17.321Z,76.70
2022-09-07T00:03:57.646Z,76.79
2022-09-07T00:06:34.608Z,76.55
2022-09-07T00:09:10.508Z,76.29
2022-09-07T00:11:44.625Z,76.37
2022-09-07T00:14:18.998Z,76.23
2022-09-07T00:16:53.176Z,76.20
2022-09-07T00:19:27.668Z,76.51
2022-09-07T00:22:01.857Z,76.69
2022-09-07T00:24:37.727Z,76.63
2022-09-07T00:27:11.872Z,76.77
2022-09-07T00:29:46.312Z,76.70
2022-09-07T00:32:20.402Z,76.69
2022-09-07T00:34:54.772Z,76.85
2022-09-07T00:37:28.772Z,76.94
2022-09-07T00:40:05.707Z,76.97
2022-09-07T00:42:40.204Z,77.12
2022-09-07T00:45:17.243Z,76.79
2022-09-07T00:47:57.448Z,76.65
2022-09-07T00:50:36.188Z,76.55
2022-09-07T00:53:14.653Z,76.92
2022-09-07T00:55:53.650Z,76.93
2022-09-07T00:58:28.933Z,77.09
2022-09-07T01:01:03.439Z,76.72
2022-09-07T01:03:42.200Z,76.34
2022-09-07T01:06:19.249Z,76.52
2022-09-07T01:08:54.475Z,76.52
2022-09-07T01:11:32.831Z,76.96
2022-09-07T01:14:10.096Z,76.74
2022-09-07T01:16:55.631Z,76.88
2022-09-07T01:19:58.753Z,76.85
2022-09-07T01:23:04.182Z,76.99
2022-09-07T01:25:47.086Z,77.01
2022-09-07T01:28:24.671Z,77.21
2022-09-07T01:31:02.814Z,77.38
2022-09-07T01:33:51.564Z,77.20
2022-09-07T01:36:34.722Z,76.94
2022-09-07T01:39:09.305Z,76.94
2022-09-07T01:41:54.232Z,76.90
2022-09-07T01:44:35.957Z,76.81
2022-09-07T01:47:15.163Z,76.75
2022-09-07T01:49:54.606Z,76.79
2022-09-07T01:52:38.221Z,77.08
2022-09-07T01:55:18.004Z,77.22
2022-09-07T01:57:57.555Z,77.23
2022-09-07T02:00:36.796Z,77.36
2022-09-07T02:03:16.384Z,77.11
2022-09-07T02:05:58.517Z,77.62
2022-09-07T02:08:37.263Z,77.72
2022-09-07T02:11:16.134Z,77.51
2022-09-07T02:13:54.265Z,77.66
2022-09-07T02:16:33.523Z,77.86
2022-09-07T02:19:14.181Z,78.06
2022-09-07T02:21:54.044Z,77.94
2022-09-07T02:24:33.942Z,77.36
2022-09-07T02:27:12.234Z,76.85
2022-09-07T02:29:46.931Z,76.84
2022-09-07T02:32:22.440Z,77.35
2022-09-07T02:34:56.884Z,77.38
2022-09-07T02:37:32.080Z,77.18
2022-09-07T02:40:08.596Z,77.53
2022-09-07T02:42:44.360Z,77.69
2022-09-07T02:45:19.447Z,77.52
2022-09-07T02:48:16.993Z,77.82
2022-09-07T02:51:12.593Z,77.92
2022-09-07T02:54:02.535Z,77.52
2022-09-07T02:56:45.699Z,77.72
2022-09-07T02:59:36.464Z,78.09
2022-09-07T03:02:20.454Z,77.49
2022-09-07T03:05:04.822Z,77.80
2022-09-07T03:07:45.600Z,77.61
2022-09-07T03:10:20.352Z,77.34
2022-09-07T03:12:54.748Z,77.51
2022-09-07T03:15:29.518Z,77.55
2022-09-07T03:18:03.854Z,77.63
2022-09-07T03:20:39.328Z,77.56
2022-09-07T03:23:13.880Z,77.75
2022-09-07T03:25:49.868Z,78.12
2022-09-07T03:28:24.334Z,78.06
2022-09-07T03:30:58.538Z,78.10
2022-09-07T03:33:32.997Z,77.87
2022-09-07T03:36:08.739Z,77.59
2022-09-07T03:38:43.135Z,77.85
2022-09-07T03:41:17.276Z,77.88
2022-09-07T03:43:51.595Z,80.45
2022-09-07T03:46:25.769Z,78.75
2022-09-07T03:49:00.300Z,75.89
2022-09-07T03:51:35.756Z,76.24
2022-09-07T03:54:10.114Z,76.50
2022-09-07T03:56:44.229Z,76.63
2022-09-07T03:59:18.611Z,77.11
2022-09-07T04:01:53.082Z,77.42
2022-09-07T04:04:27.484Z,77.49
2022-09-07T04:07:02.949Z,77.51
2022-09-07T04:09:37.433Z,77.41
2022-09-07T04:12:11.544Z,77.78
2022-09-07T04:14:46.450Z,77.95
2022-09-07T04:17:20.649Z,77.85
2022-09-07T04:19:55.879Z,77.54
2022-09-07T04:22:31.424Z,77.59
2022-09-07T04:25:06.518Z,77.51
2022-09-07T04:27:40.767Z,77.49
2022-09-07T04:30:15.484Z,77.58
2022-09-07T04:32:49.708Z,77.56
2022-09-07T04:35:24.065Z,77.71
2022-09-07T04:38:02.955Z,79.95
2022-09-07T04:40:37.435Z,79.56
2022-09-07T04:43:13.252Z,78.25
2022-09-07T04:45:47.650Z,75.07
2022-09-07T04:48:21.936Z,74.74
2022-09-07T04:50:56.281Z,75.10
2022-09-07T04:53:31.777Z,75.29
2022-09-07T04:56:07.058Z,76.23
2022-09-07T04:58:41.245Z,77.08
2022-09-07T05:01:17.640Z,76.65
2022-09-07T05:03:52.352Z,77.14
2022-09-07T05:06:26.927Z,76.85
2022-09-07T05:09:02.846Z,76.45
2022-09-07T05:11:37.322Z,77.29
2022-09-07T05:14:11.929Z,77.98
2022-09-07T05:16:46.368Z,77.96
2022-09-07T05:19:20.600Z,78.38
2022-09-07T05:21:55.063Z,77.78
2022-09-07T05:24:30.604Z,78.08
2022-09-07T05:27:05.804Z,77.60
2022-09-07T05:32:34.297Z,78.35
2022-09-07T05:35:08.781Z,77.69
2022-09-07T05:37:43.252Z,77.54
2022-09-07T05:40:18.951Z,77.91
2022-09-07T05:42:53.535Z,77.82
2022-09-07T05:45:27.729Z,78.08
2022-09-07T05:48:02.350Z,77.59
2022-09-07T05:50:36.634Z,77.83
2022-09-07T05:53:10.967Z,78.33
2022-09-07T05:55:49.954Z,77.32
2022-09-07T05:58:24.355Z,78.39
2022-09-07T06:00:59.731Z,77.61
2022-09-07T06:03:34.462Z,78.47
2022-09-07T06:06:10.622Z,78.04
2022-09-07T06:08:47.484Z,77.25
2022-09-07T06:11:25.081Z,77.56
2022-09-07T06:13:59.536Z,77.70
2022-09-07T06:16:35.051Z,77.09
2022-09-07T06:19:10.633Z,77.43
2022-09-07T06:21:44.706Z,76.67
2022-09-07T06:24:19.062Z,76.19
2022-09-07T06:26:54.664Z,76.98
2022-09-07T06:29:28.995Z,76.85
2022-09-07T06:34:57.776Z,76.81
2022-09-07T07:35:31.821Z,69.38
2022-09-07T07:40:43.058Z,68.32
2022-09-07T07:43:17.770Z,68.32
2022-09-07T07:45:54.884Z,68.51
2022-09-07T07:48:31.668Z,68.52
2022-09-07T07:51:11.849Z,67.71
2022-09-07T07:53:46.893Z,67.38
2022-09-07T07:56:22.782Z,67.02
2022-09-07T07:58:57.085Z,65.85
2022-09-07T08:01:31.187Z,65.91
2022-09-07T08:04:05.569Z,66.76
2022-09-07T08:06:43.875Z,65.26
2022-09-07T08:09:18.498Z,64.71
2022-09-07T08:11:55.075Z,64.95
2022-09-07T08:14:29.502Z,64.40
2022-09-07T08:17:04.090Z,63.83
2022-09-07T08:19:38.830Z,62.49
2022-09-07T08:22:13.506Z,61.57
2022-09-07T08:24:47.908Z,61.90
2022-09-07T08:27:23.429Z,61.82
2022-09-07T08:29:57.774Z,62.43
2022-09-07T08:32:31.998Z,61.85
2022-09-07T08:35:07.853Z,61.36
2022-09-07T08:37:41.972Z,61.38
2022-09-07T08:40:18.589Z,59.34
2022-09-07T08:43:04.965Z,58.00
2022-09-07T08:45:44.919Z,57.66
2022-09-07T08:48:21.198Z,56.64
2022-09-07T08:51:00.783Z,58.21
2022-09-07T08:53:41.282Z,55.79
2022-09-07T08:56:23.180Z,56.69
2022-09-07T08:59:00.197Z,55.52
2022-09-07T09:01:41.199Z,55.79
2022-09-07T09:04:23.705Z,55.34
2022-09-07T09:07:07.714Z,55.32
2022-09-07T09:10:03.848Z,55.06
2022-09-07T09:12:55.253Z,54.88
2022-09-07T09:15:42.319Z,55.42
2022-09-07T09:18:29.185Z,54.41
2022-09-07T09:21:03.826Z,53.09
2022-09-07T09:23:41.868Z,53.20
2022-09-07T09:26:19.629Z,55.15
2022-09-07T09:28:54.461Z,54.36
2022-09-07T09:31:36.161Z,54.62
2022-09-07T09:34:14.027Z,52.88
2022-09-07T09:36:49.464Z,52.81
2022-09-07T09:39:30.188Z,52.96
2022-09-07T09:42:17.229Z,52.64
2022-09-07T09:44:52.181Z,52.55
2022-09-07T09:47:32.700Z,50.19
2022-09-07T09:52:29.254Z,50.83
2022-09-07T09:53:26.483Z,50.39
2022-09-07T09:56:03.135Z,50.92
2022-09-07T10:01:35.440Z,50.61
2022-09-07T10:04:27.656Z,49.28
2022-09-07T10:07:15.798Z,49.46
2022-09-07T10:09:52.671Z,49.46
2022-09-07T10:12:30.249Z,49.66
2022-09-07T10:15:08.202Z,49.16
2022-09-07T10:17:44.254Z,48.93
2022-09-07T10:20:34.912Z,48.90
2022-09-07T10:23:22.621Z,47.94
2022-09-07T10:25:57.117Z,48.29
2022-09-07T10:31:33.261Z,46.80
2022-09-07T10:34:29.989Z,47.45
2022-09-07T10:37:08.842Z,47.88
2022-09-07T10:39:44.176Z,46.59
2022-09-07T10:42:29.160Z,47.12
2022-09-07T10:45:13.612Z,47.60
2022-09-07T10:48:01.624Z,47.62
2022-09-07T10:50:45.257Z,47.25
2022-09-07T10:53:44.175Z,45.49
2022-09-07T10:56:25.751Z,46.78
2022-09-07T10:59:18.405Z,46.57
2022-09-07T11:02:02.630Z,46.88
2022-09-07T11:04:50.076Z,45.88
2022-09-07T11:07:48.022Z,45.93
2022-09-07T11:10:36.946Z,46.01
2022-09-07T11:13:15.667Z,45.59
2022-09-07T11:15:54.333Z,45.66
2022-09-07T11:18:34.110Z,45.15
2022-09-07T11:21:56.099Z,44.96
2022-09-07T11:24:20.722Z,44.57
2022-09-07T11:26:59.990Z,44.16
2022-09-07T11:29:39.814Z,44.45
2022-09-07T11:32:22.552Z,43.97
2022-09-07T11:35:02.345Z,43.14
2022-09-07T11:37:43.440Z,43.22
2022-09-07T11:40:26.486Z,43.29
2022-09-07T11:43:11.421Z,44.04
2022-09-07T11:45:49.962Z,42.71
2022-09-07T11:48:30.725Z,42.09
2022-09-07T11:51:15.227Z,43.36
2022-09-07T11:53:55.412Z,44.06
2022-09-07T11:56:37.146Z,43.50
2022-09-07T11:59:25.571Z,42.66
2022-09-07T12:02:15.710Z,43.60
2022-09-07T12:05:04.154Z,41.80
2022-09-07T12:08:02.296Z,42.46
2022-09-07T12:10:52.903Z,42.23
2022-09-07T12:13:43.078Z,43.51
2022-09-07T12:16:34.659Z,41.66
2022-09-07T12:19:19.633Z,40.87
2022-09-07T12:21:57.939Z,39.21
2022-09-07T12:24:44.061Z,38.93
2022-09-07T12:27:40.268Z,38.94
2022-09-07T12:30:53.876Z,38.54
2022-09-07T12:33:35.799Z,38.42
2022-09-07T12:36:49.636Z,38.15
2022-09-07T12:39:26.961Z,39.86
2022-09-07T12:42:39.461Z,40.12
2022-09-07T12:45:49.755Z,38.67
2022-09-07T12:48:44.405Z,37.69
2022-09-07T12:54:35.930Z,38.44
2022-09-07T12:57:29.366Z,36.71
2022-09-07T13:00:15.307Z,37.26
2022-09-07T13:09:30.567Z,37.35
2022-09-07T13:15:44.310Z,36.14
2022-09-07T13:18:48.765Z,35.93
2022-09-07T13:21:39.221Z,35.75
2022-09-07T13:24:46.435Z,36.43
2022-09-07T13:27:55.870Z,37.10
2022-09-07T13:30:45.383Z,36.72
2022-09-07T13:33:53.435Z,35.99
2022-09-07T13:36:41.697Z,36.50
2022-09-07T13:39:21.290Z,36.68
2022-09-07T13:41:58.999Z,36.69
2022-09-07T13:44:35.633Z,37.80
2022-09-07T13:47:21.997Z,35.89
2022-09-07T13:50:05.547Z,36.29
2022-09-07T13:52:55.730Z,36.66
2022-09-07T13:55:38.396Z,36.41
2022-09-07T13:58:17.923Z,37.18
2022-09-07T14:00:54.416Z,37.55
2022-09-07T14:03:31.501Z,36.76
2022-09-07T14:06:31.323Z,36.26
2022-09-07T14:09:14.526Z,36.33
2022-09-07T14:11:51.282Z,38.04
2022-09-07T14:14:27.121Z,37.71
2022-09-07T14:17:06.107Z,37.24
2022-09-07T14:19:45.236Z,37.93
2022-09-07T14:22:21.475Z,38.24
2022-09-07T14:24:58.638Z,39.42
2022-09-07T14:27:34.941Z,39.11
2022-09-07T14:30:17.343Z,38.75
2022-09-07T14:32:53.707Z,39.57
2022-09-07T14:35:33.575Z,40.43
2022-09-07T14:38:12.611Z,40.30
2022-09-07T14:40:48.451Z,40.85
2022-09-07T14:43:31.706Z,40.62
2022-09-07T14:46:18.638Z,40.30
2022-09-07T14:48:55.306Z,41.51
2022-09-07T14:51:36.169Z,40.58
2022-09-07T14:54:21.026Z,40.99
2022-09-07T14:57:21.085Z,41.21
2022-09-07T14:59:57.260Z,41.04
2022-09-07T15:02:37.730Z,40.67
2022-09-07T15:05:22.578Z,41.00
2022-09-07T15:07:59.549Z,41.39
2022-09-07T15:10:37.432Z,41.12
2022-09-07T15:13:33.026Z,41.30
2022-09-07T15:16:09.424Z,41.63
2022-09-07T15:18:57.681Z,41.94
2022-09-07T15:58:36.049Z,44.93
2022-09-07T16:04:06.998Z,44.66
2022-09-07T16:06:41.320Z,44.58
2022-09-07T16:09:16.401Z,45.30
2022-09-07T16:11:50.899Z,45.35
2022-09-07T16:14:26.956Z,45.42
2022-09-07T16:19:55.474Z,46.21
2022-09-07T16:25:24.433Z,46.40
2022-09-07T16:27:58.500Z,46.85
2022-09-07T16:30:34.219Z,46.97
2022-09-07T16:33:09.077Z,46.81
2022-09-07T16:35:43.534Z,47.14
2022-09-07T16:41:14.730Z,47.58
2022-09-07T16:43:48.898Z,47.81
2022-09-07T16:46:26.425Z,48.46
2022-09-07T16:49:00.582Z,48.43
2022-09-07T16:51:35.659Z,48.52
2022-09-07T16:54:12.892Z,48.69
2022-09-07T16:56:47.535Z,48.80
2022-09-07T16:59:26.312Z,49.33
2022-09-07T17:02:02.060Z,49.61
2022-09-07T17:04:36.043Z,49.97
2022-09-07T17:07:10.496Z,50.39
2022-09-07T17:09:44.601Z,50.66
2022-09-07T17:12:18.947Z,50.80
2022-09-07T17:14:53.196Z,51.01
2022-09-07T17:17:28.994Z,51.15
2022-09-07T17:20:03.881Z,50.94
2022-09-07T17:22:38.412Z,51.36
2022-09-07T17:25:14.145Z,51.42
2022-09-07T17:27:49.103Z,51.38
2022-09-07T17:30:24.712Z,51.43
2022-09-07T17:33:00.739Z,51.75
2022-09-07T17:35:37.381Z,52.05
2022-09-07T17:41:11.777Z,52.48
2022-09-07T17:43:46.263Z,52.31
2022-09-07T17:46:22.893Z,52.74
2022-09-07T17:49:01.103Z,52.90
2022-09-07T17:51:35.177Z,53.66
2022-09-07T17:54:13.755Z,52.78
2022-09-07T17:56:47.852Z,52.72
2022-09-07T18:02:16.621Z,54.84
2022-09-07T18:04:52.509Z,53.06
2022-09-07T18:07:27.673Z,51.26
2022-09-07T18:10:02.847Z,51.47
2022-09-07T18:12:37.285Z,52.53
2022-09-07T18:15:12.417Z,53.61
2022-09-07T18:17:46.546Z,53.41
2022-09-07T18:20:22.883Z,52.94
2022-09-07T18:22:57.812Z,54.76
2022-09-07T18:25:32.414Z,56.13
2022-09-07T18:31:05.518Z,57.00
2022-09-07T18:33:40.116Z,57.46
2022-09-07T18:36:16.455Z,57.37
2022-09-07T18:38:50.917Z,58.36
2022-09-07T18:41:25.280Z,58.22
2022-09-07T18:43:59.488Z,56.05
2022-09-07T18:46:34.700Z,57.24
2022-09-07T18:49:08.866Z,56.06
2022-09-07T18:54:38.934Z,56.79
2022-09-07T18:57:15.304Z,57.71
2022-09-07T18:59:49.956Z,58.31
2022-09-07T19:02:24.686Z,57.14
2022-09-07T19:07:54.676Z,57.55
2022-09-07T19:10:28.873Z,57.93
2022-09-07T19:13:03.520Z,58.29
2022-09-07T19:15:38.109Z,59.24
2022-09-07T19:18:12.643Z,59.53
2022-09-07T19:20:46.769Z,59.37
2022-09-07T19:23:22.638Z,58.71
2022-09-07T19:25:59.342Z,59.67
2022-09-07T19:28:34.481Z,60.06
2022-09-07T19:31:08.906Z,59.20
2022-09-07T19:33:43.480Z,59.95
2022-09-07T19:36:17.681Z,59.90
2022-09-07T19:38:53.535Z,60.07
2022-09-07T19:41:30.295Z,59.65
2022-09-07T19:44:04.654Z,60.16
2022-09-07T19:46:38.760Z,60.08
2022-09-07T19:49:13.395Z,60.10
2022-09-07T19:51:49.508Z,60.63
2022-09-07T19:54:25.378Z,60.49
2022-09-07T19:56:59.396Z,60.89
2022-09-07T19:59:33.962Z,61.18
2022-09-07T20:02:08.090Z,61.65
2022-09-07T20:04:42.689Z,61.98
2022-09-07T20:07:16.828Z,62.39
2022-09-07T20:09:53.217Z,62.43
2022-09-07T20:12:27.351Z,62.63
2022-09-07T20:15:01.792Z,63.00
2022-09-07T20:17:37.589Z,63.21
2022-09-07T20:20:12.165Z,63.64
2022-09-07T20:22:46.523Z,63.48
2022-09-07T20:25:22.733Z,63.62
2022-09-07T20:27:57.209Z,64.10
2022-09-07T20:30:33.780Z,63.84
2022-09-07T20:33:08.016Z,63.63
2022-09-07T20:35:43.749Z,63.41
2022-09-07T20:38:18.979Z,63.46
2022-09-07T20:40:58.320Z,63.60
2022-09-07T20:43:32.439Z,63.47
2022-09-07T20:46:09.699Z,63.55
2022-09-07T20:48:44.224Z,64.02
2022-09-07T20:51:21.196Z,63.99
2022-09-07T20:53:55.960Z,64.01
2022-09-07T20:56:32.125Z,64.17
2022-09-07T20:59:06.901Z,63.87
2022-09-07T21:01:41.292Z,63.87
2022-09-07T21:04:17.613Z,64.27
2022-09-07T21:06:53.094Z,64.90
2022-09-07T21:09:27.148Z,65.32
2022-09-07T21:12:03.088Z,65.08
2022-09-07T21:14:37.138Z,64.92
2022-09-07T21:17:13.266Z,64.99
2022-09-07T21:19:47.521Z,64.64
2022-09-07T21:22:21.940Z,64.21
2022-09-07T21:24:56.034Z,64.32
2022-09-07T21:27:38.758Z,64.74
2022-09-07T21:30:14.142Z,64.95
2022-09-07T21:32:51.697Z,65.07
2022-09-07T21:35:25.776Z,65.89
2022-09-07T21:38:00.066Z,65.49
2022-09-07T21:40:34.060Z,66.18
2022-09-07T21:43:09.805Z,66.11
2022-09-07T21:45:43.848Z,66.31
2022-09-07T21:48:18.206Z,66.84
2022-09-07T21:50:57.728Z,67.08
2022-09-07T21:53:32.515Z,67.49
2022-09-07T21:56:08.840Z,67.58
2022-09-07T21:58:44.804Z,67.38
2022-09-07T22:01:20.277Z,67.34
2022-09-07T22:03:57.066Z,67.36
2022-09-07T22:06:32.747Z,67.78
2022-09-07T22:09:07.195Z,67.87
2022-09-07T22:11:45.374Z,67.20
2022-09-07T22:14:21.602Z,68.09
2022-09-07T22:16:55.715Z,68.45
2022-09-07T22:19:30.160Z,67.91
2022-09-07T22:22:04.320Z,67.98
2022-09-07T22:24:39.056Z,68.08
2022-09-07T22:27:13.138Z,68.49
2022-09-07T22:29:49.095Z,68.63
2022-09-07T22:32:23.126Z,69.03
2022-09-07T22:34:57.381Z,68.63
2022-09-07T22:37:32.345Z,68.92
2022-09-07T22:40:07.745Z,68.47
2022-09-07T22:42:42.027Z,69.60
2022-09-07T22:45:17.838Z,69.80
2022-09-07T22:47:51.938Z,69.99
2022-09-07T22:50:26.427Z,69.97
2022-09-07T22:53:00.488Z,70.20
2022-09-07T22:55:39.488Z,69.73
2022-09-07T22:58:13.500Z,69.54
2022-09-07T23:00:49.259Z,69.94
2022-09-07T23:03:23.444Z,70.40
2022-09-07T23:05:58.033Z,69.60
2022-09-07T23:08:32.733Z,69.31
2022-09-07T23:11:07.573Z,70.34
2022-09-07T23:13:41.855Z,70.09
2022-09-07T23:16:17.989Z,70.50
2022-09-07T23:18:54.865Z,70.93
2022-09-07T23:21:30.379Z,71.22
2022-09-07T23:24:04.689Z,71.36
2022-09-07T23:26:42.366Z,71.42
2022-09-07T23:29:17.501Z,70.55
2022-09-07T23:31:53.610Z,70.25
2022-09-07T23:34:27.716Z,70.12
2022-09-07T23:37:02.088Z,69.74
2022-09-07T23:39:36.113Z,70.42
2022-09-07T23:42:10.523Z,70.89
2022-09-07T23:44:45.311Z,71.02
2022-09-07T23:47:21.046Z,70.88
2022-09-07T23:49:55.201Z,71.05
2022-09-07T23:52:29.760Z,71.53
2022-09-07T23:55:03.895Z,71.69
2022-09-07T23:57:38.612Z,71.68
